sensor_id;sensor_type;location;lat;lon;timestamp;P1;durP1;ratioP1;P2;durP2;ratioP2
57730;SDS011;43570;47.476;19.040;2023-05-07T00:01:36;8.75;;;7.07;;
57730;SDS011;43570;47.476;19.040;2023-05-07T00:04:02;9.90;;;7.80;;
57730;SDS011;43570;47.476;19.040;2023-05-07T00:06:28;8.80;;;7.57;;
57730;SDS011;43570;47.476;19.040;2023-05-07T00:08:54;11.23;;;7.72;;
57730;SDS011;43570;47.476;19.040;2023-05-07T00:11:19;8.10;;;7.10;;
57730;SDS011;43570;47.476;19.040;2023-05-07T00:13:45;10.10;;;7.22;;
57730;SDS011;43570;47.476;19.040;2023-05-07T00:16:11;9.70;;;7.35;;
57730;SDS011;43570;47.476;19.040;2023-05-07T00:18:36;7.82;;;6.57;;
57730;SDS011;43570;47.476;19.040;2023-05-07T00:21:01;9.88;;;6.87;;
57730;SDS011;43570;47.476;19.040;2023-05-07T00:23:27;9.48;;;7.00;;
57730;SDS011;43570;47.476;19.040;2023-05-07T00:25:52;9.07;;;7.57;;
57730;SDS011;43570;47.476;19.040;2023-05-07T00:28:17;10.52;;;8.30;;
57730;SDS011;43570;47.476;19.040;2023-05-07T00:30:43;9.85;;;7.90;;
57730;SDS011;43570;47.476;19.040;2023-05-07T00:33:08;8.57;;;7.75;;
57730;SDS011;43570;47.476;19.040;2023-05-07T00:35:34;9.20;;;8.27;;
57730;SDS011;43570;47.476;19.040;2023-05-07T00:37:59;9.13;;;8.13;;
57730;SDS011;43570;47.476;19.040;2023-05-07T00:40:24;8.98;;;8.05;;
57730;SDS011;43570;47.476;19.040;2023-05-07T00:42:50;9.95;;;8.30;;
57730;SDS011;43570;47.476;19.040;2023-05-07T00:45:16;9.38;;;8.18;;
57730;SDS011;43570;47.476;19.040;2023-05-07T00:47:41;9.23;;;8.32;;
57730;SDS011;43570;47.476;19.040;2023-05-07T00:50:07;11.38;;;8.38;;
57730;SDS011;43570;47.476;19.040;2023-05-07T00:52:34;10.60;;;8.85;;
57730;SDS011;43570;47.476;19.040;2023-05-07T00:55:01;9.27;;;8.38;;
57730;SDS011;43570;47.476;19.040;2023-05-07T00:57:30;9.77;;;8.10;;
57730;SDS011;43570;47.476;19.040;2023-05-07T00:59:58;9.32;;;8.05;;
57730;SDS011;43570;47.476;19.040;2023-05-07T01:02:23;9.27;;;8.35;;
57730;SDS011;43570;47.476;19.040;2023-05-07T01:04:49;9.52;;;8.60;;
57730;SDS011;43570;47.476;19.040;2023-05-07T01:07:14;9.60;;;8.40;;
57730;SDS011;43570;47.476;19.040;2023-05-07T01:09:40;10.82;;;9.32;;
57730;SDS011;43570;47.476;19.040;2023-05-07T01:12:06;11.07;;;9.90;;
57730;SDS011;43570;47.476;19.040;2023-05-07T01:14:31;11.12;;;9.90;;
57730;SDS011;43570;47.476;19.040;2023-05-07T01:16:58;11.20;;;10.07;;
57730;SDS011;43570;47.476;19.040;2023-05-07T01:19:23;10.68;;;9.57;;
57730;SDS011;43570;47.476;19.040;2023-05-07T01:21:49;10.30;;;9.20;;
57730;SDS011;43570;47.476;19.040;2023-05-07T01:24:16;10.82;;;8.68;;
57730;SDS011;43570;47.476;19.040;2023-05-07T01:26:42;10.65;;;9.55;;
57730;SDS011;43570;47.476;19.040;2023-05-07T01:29:08;8.85;;;7.95;;
57730;SDS011;43570;47.476;19.040;2023-05-07T01:31:34;8.07;;;6.45;;
57730;SDS011;43570;47.476;19.040;2023-05-07T01:33:59;8.07;;;6.93;;
57730;SDS011;43570;47.476;19.040;2023-05-07T01:36:26;9.15;;;7.28;;
57730;SDS011;43570;47.476;19.040;2023-05-07T01:38:53;8.68;;;7.40;;
57730;SDS011;43570;47.476;19.040;2023-05-07T01:41:19;7.90;;;6.50;;
57730;SDS011;43570;47.476;19.040;2023-05-07T01:43:44;7.65;;;6.22;;
57730;SDS011;43570;47.476;19.040;2023-05-07T01:46:11;6.50;;;5.55;;
57730;SDS011;43570;47.476;19.040;2023-05-07T01:48:37;7.28;;;6.25;;
57730;SDS011;43570;47.476;19.040;2023-05-07T01:51:03;6.78;;;6.03;;
57730;SDS011;43570;47.476;19.040;2023-05-07T01:53:30;7.50;;;6.10;;
57730;SDS011;43570;47.476;19.040;2023-05-07T01:56:01;7.43;;;6.20;;
57730;SDS011;43570;47.476;19.040;2023-05-07T01:58:26;6.70;;;6.00;;
57730;SDS011;43570;47.476;19.040;2023-05-07T02:00:51;8.40;;;6.28;;
57730;SDS011;43570;47.476;19.040;2023-05-07T02:03:17;6.93;;;6.22;;
57730;SDS011;43570;47.476;19.040;2023-05-07T02:05:42;7.40;;;6.43;;
57730;SDS011;43570;47.476;19.040;2023-05-07T02:08:07;6.95;;;6.22;;
57730;SDS011;43570;47.476;19.040;2023-05-07T02:10:33;8.18;;;6.37;;
57730;SDS011;43570;47.476;19.040;2023-05-07T02:12:58;8.38;;;6.25;;
57730;SDS011;43570;47.476;19.040;2023-05-07T02:15:26;6.10;;;5.43;;
57730;SDS011;43570;47.476;19.040;2023-05-07T02:20:43;8.50;;;7.62;;
57730;SDS011;43570;47.476;19.040;2023-05-07T02:23:08;10.25;;;8.35;;
57730;SDS011;43570;47.476;19.040;2023-05-07T02:25:34;9.43;;;8.45;;
57730;SDS011;43570;47.476;19.040;2023-05-07T02:27:59;9.10;;;8.18;;
57730;SDS011;43570;47.476;19.040;2023-05-07T02:30:25;8.80;;;7.82;;
57730;SDS011;43570;47.476;19.040;2023-05-07T02:32:50;8.70;;;7.30;;
57730;SDS011;43570;47.476;19.040;2023-05-07T02:35:16;9.32;;;6.85;;
57730;SDS011;43570;47.476;19.040;2023-05-07T02:37:41;8.15;;;7.22;;
57730;SDS011;43570;47.476;19.040;2023-05-07T02:40:07;8.02;;;7.10;;
57730;SDS011;43570;47.476;19.040;2023-05-07T02:42:33;8.13;;;7.30;;
57730;SDS011;43570;47.476;19.040;2023-05-07T02:44:58;8.88;;;7.35;;
57730;SDS011;43570;47.476;19.040;2023-05-07T02:47:24;8.30;;;7.25;;
57730;SDS011;43570;47.476;19.040;2023-05-07T02:49:51;9.15;;;7.30;;
57730;SDS011;43570;47.476;19.040;2023-05-07T02:52:17;8.75;;;6.45;;
57730;SDS011;43570;47.476;19.040;2023-05-07T02:54:42;8.23;;;6.97;;
57730;SDS011;43570;47.476;19.040;2023-05-07T02:57:07;10.18;;;6.93;;
57730;SDS011;43570;47.476;19.040;2023-05-07T02:59:33;7.55;;;6.53;;
57730;SDS011;43570;47.476;19.040;2023-05-07T03:01:58;8.88;;;7.40;;
57730;SDS011;43570;47.476;19.040;2023-05-07T03:04:23;9.45;;;7.80;;
57730;SDS011;43570;47.476;19.040;2023-05-07T03:06:49;10.70;;;7.93;;
57730;SDS011;43570;47.476;19.040;2023-05-07T03:09:14;8.23;;;7.30;;
57730;SDS011;43570;47.476;19.040;2023-05-07T03:11:39;9.05;;;6.75;;
57730;SDS011;43570;47.476;19.040;2023-05-07T03:14:05;8.02;;;6.50;;
57730;SDS011;43570;47.476;19.040;2023-05-07T03:16:30;8.48;;;6.95;;
57730;SDS011;43570;47.476;19.040;2023-05-07T03:18:56;10.50;;;6.53;;
57730;SDS011;43570;47.476;19.040;2023-05-07T03:21:21;7.35;;;6.45;;
57730;SDS011;43570;47.476;19.040;2023-05-07T03:23:46;8.43;;;6.20;;
57730;SDS011;43570;47.476;19.040;2023-05-07T03:26:12;7.12;;;6.05;;
57730;SDS011;43570;47.476;19.040;2023-05-07T03:28:37;7.75;;;6.18;;
57730;SDS011;43570;47.476;19.040;2023-05-07T03:31:02;9.48;;;6.37;;
57730;SDS011;43570;47.476;19.040;2023-05-07T03:33:28;8.38;;;7.47;;
57730;SDS011;43570;47.476;19.040;2023-05-07T03:35:53;11.77;;;7.35;;
57730;SDS011;43570;47.476;19.040;2023-05-07T03:38:19;14.32;;;7.57;;
57730;SDS011;43570;47.476;19.040;2023-05-07T03:40:44;8.52;;;6.85;;
57730;SDS011;43570;47.476;19.040;2023-05-07T03:43:10;10.15;;;7.68;;
57730;SDS011;43570;47.476;19.040;2023-05-07T03:45:35;9.05;;;7.07;;
57730;SDS011;43570;47.476;19.040;2023-05-07T03:48:00;10.00;;;6.60;;
57730;SDS011;43570;47.476;19.040;2023-05-07T03:50:26;8.30;;;6.47;;
57730;SDS011;43570;47.476;19.040;2023-05-07T03:52:51;10.82;;;6.80;;
57730;SDS011;43570;47.476;19.040;2023-05-07T03:55:17;9.38;;;6.43;;
57730;SDS011;43570;47.476;19.040;2023-05-07T03:57:42;8.57;;;6.80;;
57730;SDS011;43570;47.476;19.040;2023-05-07T04:00:08;8.55;;;6.60;;
57730;SDS011;43570;47.476;19.040;2023-05-07T04:02:34;8.30;;;6.62;;
57730;SDS011;43570;47.476;19.040;2023-05-07T04:04:59;9.65;;;6.62;;
57730;SDS011;43570;47.476;19.040;2023-05-07T04:07:24;10.15;;;6.93;;
57730;SDS011;43570;47.476;19.040;2023-05-07T04:09:50;9.45;;;6.87;;
57730;SDS011;43570;47.476;19.040;2023-05-07T04:12:15;7.90;;;7.10;;
57730;SDS011;43570;47.476;19.040;2023-05-07T04:14:41;8.98;;;8.07;;
57730;SDS011;43570;47.476;19.040;2023-05-07T04:17:06;10.18;;;8.25;;
57730;SDS011;43570;47.476;19.040;2023-05-07T04:19:33;9.82;;;8.02;;
57730;SDS011;43570;47.476;19.040;2023-05-07T04:21:58;9.65;;;8.57;;
57730;SDS011;43570;47.476;19.040;2023-05-07T04:24:24;9.00;;;8.07;;
57730;SDS011;43570;47.476;19.040;2023-05-07T04:26:49;9.93;;;8.40;;
57730;SDS011;43570;47.476;19.040;2023-05-07T04:29:16;10.45;;;8.38;;
57730;SDS011;43570;47.476;19.040;2023-05-07T04:31:41;11.18;;;8.45;;
57730;SDS011;43570;47.476;19.040;2023-05-07T04:34:09;12.52;;;8.63;;
57730;SDS011;43570;47.476;19.040;2023-05-07T04:36:36;11.40;;;8.68;;
57730;SDS011;43570;47.476;19.040;2023-05-07T04:39:02;10.48;;;8.93;;
57730;SDS011;43570;47.476;19.040;2023-05-07T04:41:27;9.45;;;8.30;;
57730;SDS011;43570;47.476;19.040;2023-05-07T04:43:53;11.52;;;9.30;;
57730;SDS011;43570;47.476;19.040;2023-05-07T04:46:18;10.75;;;8.23;;
57730;SDS011;43570;47.476;19.040;2023-05-07T04:48:43;8.95;;;7.82;;
57730;SDS011;43570;47.476;19.040;2023-05-07T04:51:09;9.15;;;7.53;;
57730;SDS011;43570;47.476;19.040;2023-05-07T04:53:34;8.75;;;7.82;;
57730;SDS011;43570;47.476;19.040;2023-05-07T04:56:00;9.75;;;7.85;;
57730;SDS011;43570;47.476;19.040;2023-05-07T04:58:25;8.55;;;7.65;;
57730;SDS011;43570;47.476;19.040;2023-05-07T05:00:51;8.95;;;7.40;;
57730;SDS011;43570;47.476;19.040;2023-05-07T05:03:16;8.65;;;7.37;;
57730;SDS011;43570;47.476;19.040;2023-05-07T05:05:42;8.70;;;7.80;;
57730;SDS011;43570;47.476;19.040;2023-05-07T05:08:07;8.23;;;7.43;;
57730;SDS011;43570;47.476;19.040;2023-05-07T05:10:33;8.57;;;7.30;;
57730;SDS011;43570;47.476;19.040;2023-05-07T05:12:58;7.60;;;6.65;;
57730;SDS011;43570;47.476;19.040;2023-05-07T05:15:24;8.10;;;7.25;;
57730;SDS011;43570;47.476;19.040;2023-05-07T05:17:49;14.65;;;7.62;;
57730;SDS011;43570;47.476;19.040;2023-05-07T05:20:14;9.57;;;7.00;;
57730;SDS011;43570;47.476;19.040;2023-05-07T05:22:41;8.70;;;7.80;;
57730;SDS011;43570;47.476;19.040;2023-05-07T05:25:07;9.05;;;7.40;;
57730;SDS011;43570;47.476;19.040;2023-05-07T05:27:32;8.63;;;7.72;;
57730;SDS011;43570;47.476;19.040;2023-05-07T05:29:58;8.85;;;7.50;;
57730;SDS011;43570;47.476;19.040;2023-05-07T05:32:23;8.63;;;6.40;;
57730;SDS011;43570;47.476;19.040;2023-05-07T05:34:48;10.98;;;7.55;;
57730;SDS011;43570;47.476;19.040;2023-05-07T05:37:14;7.07;;;6.37;;
57730;SDS011;43570;47.476;19.040;2023-05-07T05:39:40;8.00;;;6.32;;
57730;SDS011;43570;47.476;19.040;2023-05-07T05:42:05;6.57;;;5.43;;
57730;SDS011;43570;47.476;19.040;2023-05-07T05:44:30;6.28;;;5.45;;
57730;SDS011;43570;47.476;19.040;2023-05-07T05:46:56;6.80;;;5.90;;
57730;SDS011;43570;47.476;19.040;2023-05-07T05:49:24;9.20;;;5.70;;
57730;SDS011;43570;47.476;19.040;2023-05-07T05:51:49;13.62;;;5.87;;
57730;SDS011;43570;47.476;19.040;2023-05-07T05:54:14;9.10;;;8.00;;
57730;SDS011;43570;47.476;19.040;2023-05-07T05:56:40;10.10;;;8.10;;
57730;SDS011;43570;47.476;19.040;2023-05-07T05:59:06;8.68;;;7.78;;
57730;SDS011;43570;47.476;19.040;2023-05-07T06:01:32;9.30;;;7.87;;
57730;SDS011;43570;47.476;19.040;2023-05-07T06:03:57;11.50;;;7.78;;
57730;SDS011;43570;47.476;19.040;2023-05-07T06:06:22;7.78;;;7.03;;
57730;SDS011;43570;47.476;19.040;2023-05-07T06:08:48;7.93;;;6.50;;
57730;SDS011;43570;47.476;19.040;2023-05-07T06:11:13;8.15;;;6.40;;
57730;SDS011;43570;47.476;19.040;2023-05-07T06:13:39;7.87;;;7.07;;
57730;SDS011;43570;47.476;19.040;2023-05-07T06:16:04;8.07;;;7.05;;
57730;SDS011;43570;47.476;19.040;2023-05-07T06:18:30;8.77;;;7.82;;
57730;SDS011;43570;47.476;19.040;2023-05-07T06:20:55;9.25;;;7.47;;
57730;SDS011;43570;47.476;19.040;2023-05-07T06:23:21;8.82;;;7.47;;
57730;SDS011;43570;47.476;19.040;2023-05-07T06:25:50;8.25;;;7.37;;
57730;SDS011;43570;47.476;19.040;2023-05-07T06:28:15;7.37;;;6.30;;
57730;SDS011;43570;47.476;19.040;2023-05-07T06:30:41;6.93;;;6.22;;
57730;SDS011;43570;47.476;19.040;2023-05-07T06:33:06;7.78;;;5.90;;
57730;SDS011;43570;47.476;19.040;2023-05-07T06:35:31;8.45;;;6.20;;
57730;SDS011;43570;47.476;19.040;2023-05-07T06:37:57;8.25;;;6.90;;
57730;SDS011;43570;47.476;19.040;2023-05-07T06:40:22;8.88;;;7.28;;
57730;SDS011;43570;47.476;19.040;2023-05-07T06:42:48;6.97;;;6.28;;
57730;SDS011;43570;47.476;19.040;2023-05-07T06:45:13;7.80;;;6.57;;
57730;SDS011;43570;47.476;19.040;2023-05-07T06:47:38;7.72;;;6.50;;
57730;SDS011;43570;47.476;19.040;2023-05-07T06:50:04;5.87;;;4.70;;
57730;SDS011;43570;47.476;19.040;2023-05-07T06:52:30;6.97;;;4.97;;
57730;SDS011;43570;47.476;19.040;2023-05-07T06:54:55;4.90;;;3.90;;
57730;SDS011;43570;47.476;19.040;2023-05-07T06:57:20;3.95;;;2.85;;
57730;SDS011;43570;47.476;19.040;2023-05-07T06:59:46;5.05;;;3.90;;
57730;SDS011;43570;47.476;19.040;2023-05-07T07:02:11;4.53;;;2.83;;
57730;SDS011;43570;47.476;19.040;2023-05-07T07:04:36;4.20;;;2.58;;
57730;SDS011;43570;47.476;19.040;2023-05-07T07:07:02;4.93;;;3.40;;
57730;SDS011;43570;47.476;19.040;2023-05-07T07:09:27;5.07;;;3.45;;
57730;SDS011;43570;47.476;19.040;2023-05-07T07:11:53;4.68;;;3.70;;
57730;SDS011;43570;47.476;19.040;2023-05-07T07:14:18;5.68;;;4.40;;
57730;SDS011;43570;47.476;19.040;2023-05-07T07:16:43;6.30;;;4.12;;
57730;SDS011;43570;47.476;19.040;2023-05-07T07:19:09;6.12;;;4.85;;
57730;SDS011;43570;47.476;19.040;2023-05-07T07:21:34;6.72;;;5.30;;
57730;SDS011;43570;47.476;19.040;2023-05-07T07:23:59;6.45;;;5.00;;
57730;SDS011;43570;47.476;19.040;2023-05-07T07:26:25;6.50;;;4.20;;
57730;SDS011;43570;47.476;19.040;2023-05-07T07:28:50;5.15;;;3.40;;
57730;SDS011;43570;47.476;19.040;2023-05-07T07:31:16;4.47;;;3.45;;
57730;SDS011;43570;47.476;19.040;2023-05-07T07:33:41;4.62;;;3.47;;
57730;SDS011;43570;47.476;19.040;2023-05-07T07:36:07;6.28;;;3.60;;
57730;SDS011;43570;47.476;19.040;2023-05-07T07:38:32;3.90;;;2.97;;
57730;SDS011;43570;47.476;19.040;2023-05-07T07:40:58;4.60;;;3.05;;
57730;SDS011;43570;47.476;19.040;2023-05-07T07:43:23;5.78;;;2.78;;
57730;SDS011;43570;47.476;19.040;2023-05-07T07:45:49;4.28;;;2.80;;
57730;SDS011;43570;47.476;19.040;2023-05-07T07:48:14;5.25;;;2.67;;
57730;SDS011;43570;47.476;19.040;2023-05-07T07:50:40;2.30;;;2.10;;
57730;SDS011;43570;47.476;19.040;2023-05-07T07:53:05;3.65;;;2.37;;
57730;SDS011;43570;47.476;19.040;2023-05-07T07:55:30;3.25;;;2.10;;
57730;SDS011;43570;47.476;19.040;2023-05-07T07:57:57;3.33;;;2.45;;
57730;SDS011;43570;47.476;19.040;2023-05-07T08:00:22;4.00;;;2.65;;
57730;SDS011;43570;47.476;19.040;2023-05-07T08:02:48;4.28;;;2.85;;
57730;SDS011;43570;47.476;19.040;2023-05-07T08:05:13;5.07;;;3.40;;
57730;SDS011;43570;47.476;19.040;2023-05-07T08:07:40;4.65;;;2.80;;
57730;SDS011;43570;47.476;19.040;2023-05-07T08:10:05;4.10;;;2.90;;
57730;SDS011;43570;47.476;19.040;2023-05-07T08:12:31;4.12;;;3.30;;
57730;SDS011;43570;47.476;19.040;2023-05-07T08:14:56;5.53;;;3.17;;
57730;SDS011;43570;47.476;19.040;2023-05-07T08:17:22;3.42;;;2.87;;
57730;SDS011;43570;47.476;19.040;2023-05-07T08:19:47;4.15;;;2.62;;
57730;SDS011;43570;47.476;19.040;2023-05-07T08:22:13;7.22;;;5.07;;
57730;SDS011;43570;47.476;19.040;2023-05-07T08:24:39;6.78;;;5.93;;
57730;SDS011;43570;47.476;19.040;2023-05-07T08:27:05;7.55;;;5.93;;
57730;SDS011;43570;47.476;19.040;2023-05-07T08:29:30;7.15;;;5.82;;
57730;SDS011;43570;47.476;19.040;2023-05-07T08:31:55;6.87;;;6.18;;
57730;SDS011;43570;47.476;19.040;2023-05-07T08:34:21;6.78;;;6.07;;
57730;SDS011;43570;47.476;19.040;2023-05-07T08:36:47;7.55;;;6.10;;
57730;SDS011;43570;47.476;19.040;2023-05-07T08:39:13;6.55;;;5.62;;
57730;SDS011;43570;47.476;19.040;2023-05-07T08:41:40;8.55;;;6.90;;
57730;SDS011;43570;47.476;19.040;2023-05-07T08:44:07;12.57;;;11.35;;
57730;SDS011;43570;47.476;19.040;2023-05-07T08:46:37;8.40;;;7.45;;
57730;SDS011;43570;47.476;19.040;2023-05-07T08:49:02;8.35;;;7.55;;
57730;SDS011;43570;47.476;19.040;2023-05-07T08:51:28;8.43;;;6.18;;
57730;SDS011;43570;47.476;19.040;2023-05-07T08:53:53;9.27;;;5.78;;
57730;SDS011;43570;47.476;19.040;2023-05-07T08:56:19;7.70;;;5.93;;
57730;SDS011;43570;47.476;19.040;2023-05-07T08:58:45;8.43;;;6.82;;
57730;SDS011;43570;47.476;19.040;2023-05-07T09:01:14;8.23;;;7.43;;
57730;SDS011;43570;47.476;19.040;2023-05-07T09:03:40;9.23;;;7.25;;
57730;SDS011;43570;47.476;19.040;2023-05-07T09:06:07;8.15;;;7.00;;
57730;SDS011;43570;47.476;19.040;2023-05-07T09:08:32;7.37;;;6.57;;
57730;SDS011;43570;47.476;19.040;2023-05-07T09:10:58;7.32;;;6.53;;
57730;SDS011;43570;47.476;19.040;2023-05-07T09:13:24;9.65;;;7.55;;
57730;SDS011;43570;47.476;19.040;2023-05-07T09:15:49;8.25;;;7.45;;
57730;SDS011;43570;47.476;19.040;2023-05-07T09:18:15;8.55;;;6.70;;
57730;SDS011;43570;47.476;19.040;2023-05-07T09:20:40;7.87;;;5.80;;
57730;SDS011;43570;47.476;19.040;2023-05-07T09:23:06;7.95;;;6.12;;
57730;SDS011;43570;47.476;19.040;2023-05-07T09:25:33;6.78;;;6.07;;
57730;SDS011;43570;47.476;19.040;2023-05-07T09:28:02;6.60;;;5.65;;
57730;SDS011;43570;47.476;19.040;2023-05-07T09:30:32;7.40;;;5.35;;
57730;SDS011;43570;47.476;19.040;2023-05-07T09:35:24;7.22;;;5.12;;
57730;SDS011;43570;47.476;19.040;2023-05-07T09:37:52;7.70;;;5.43;;
57730;SDS011;43570;47.476;19.040;2023-05-07T09:40:25;6.28;;;5.43;;
57730;SDS011;43570;47.476;19.040;2023-05-07T09:42:52;9.07;;;8.18;;
57730;SDS011;43570;47.476;19.040;2023-05-07T09:45:27;6.28;;;5.15;;
57730;SDS011;43570;47.476;19.040;2023-05-07T09:47:55;5.95;;;4.87;;
57730;SDS011;43570;47.476;19.040;2023-05-07T09:50:29;6.20;;;5.25;;
57730;SDS011;43570;47.476;19.040;2023-05-07T09:52:55;5.93;;;4.78;;
57730;SDS011;43570;47.476;19.040;2023-05-07T09:55:21;5.97;;;4.40;;
57730;SDS011;43570;47.476;19.040;2023-05-07T09:57:50;5.60;;;4.28;;
57730;SDS011;43570;47.476;19.040;2023-05-07T10:00:18;5.65;;;4.90;;
57730;SDS011;43570;47.476;19.040;2023-05-07T10:02:45;7.40;;;5.30;;
57730;SDS011;43570;47.476;19.040;2023-05-07T10:07:39;7.05;;;5.68;;
57730;SDS011;43570;47.476;19.040;2023-05-07T10:10:06;7.35;;;5.57;;
57730;SDS011;43570;47.476;19.040;2023-05-07T10:12:32;4.93;;;4.22;;
57730;SDS011;43570;47.476;19.040;2023-05-07T10:15:04;5.93;;;4.57;;
57730;SDS011;43570;47.476;19.040;2023-05-07T10:17:31;5.60;;;4.05;;
57730;SDS011;43570;47.476;19.040;2023-05-07T10:19:56;6.47;;;4.32;;
57730;SDS011;43570;47.476;19.040;2023-05-07T10:22:22;8.73;;;5.93;;
57730;SDS011;43570;47.476;19.040;2023-05-07T10:24:49;7.60;;;6.53;;
57730;SDS011;43570;47.476;19.040;2023-05-07T10:27:17;6.93;;;4.73;;
57730;SDS011;43570;47.476;19.040;2023-05-07T10:35:14;4.70;;;4.12;;
57730;SDS011;43570;47.476;19.040;2023-05-07T10:37:50;5.62;;;4.25;;
57730;SDS011;43570;47.476;19.040;2023-05-07T10:40:16;6.10;;;4.72;;
57730;SDS011;43570;47.476;19.040;2023-05-07T10:42:58;6.32;;;5.00;;
57730;SDS011;43570;47.476;19.040;2023-05-07T10:45:29;7.37;;;5.20;;
57730;SDS011;43570;47.476;19.040;2023-05-07T10:48:11;6.60;;;4.72;;
57730;SDS011;43570;47.476;19.040;2023-05-07T10:50:41;8.70;;;5.50;;
57730;SDS011;43570;47.476;19.040;2023-05-07T10:55:42;7.05;;;5.20;;
57730;SDS011;43570;47.476;19.040;2023-05-07T11:00:46;6.95;;;4.68;;
57730;SDS011;43570;47.476;19.040;2023-05-07T11:03:12;6.20;;;4.72;;
57730;SDS011;43570;47.476;19.040;2023-05-07T11:05:39;6.45;;;5.32;;
57730;SDS011;43570;47.476;19.040;2023-05-07T11:08:06;7.25;;;5.05;;
57730;SDS011;43570;47.476;19.040;2023-05-07T11:10:48;5.78;;;4.35;;
57730;SDS011;43570;47.476;19.040;2023-05-07T11:13:18;5.47;;;4.50;;
57730;SDS011;43570;47.476;19.040;2023-05-07T11:15:47;5.43;;;4.40;;
57730;SDS011;43570;47.476;19.040;2023-05-07T11:18:17;5.97;;;4.85;;
57730;SDS011;43570;47.476;19.040;2023-05-07T11:20:46;4.65;;;3.78;;
57730;SDS011;43570;47.476;19.040;2023-05-07T11:26:02;6.10;;;3.67;;
57730;SDS011;43570;47.476;19.040;2023-05-07T11:28:28;4.62;;;3.50;;
57730;SDS011;43570;47.476;19.040;2023-05-07T11:30:56;5.18;;;3.78;;
57730;SDS011;43570;47.476;19.040;2023-05-07T11:33:22;5.82;;;4.07;;
57730;SDS011;43570;47.476;19.040;2023-05-07T11:35:48;6.53;;;4.00;;
57730;SDS011;43570;47.476;19.040;2023-05-07T11:38:13;4.78;;;3.20;;
57730;SDS011;43570;47.476;19.040;2023-05-07T11:40:51;4.07;;;3.30;;
57730;SDS011;43570;47.476;19.040;2023-05-07T11:45:44;5.00;;;3.28;;
57730;SDS011;43570;47.476;19.040;2023-05-07T11:48:10;5.32;;;3.72;;
57730;SDS011;43570;47.476;19.040;2023-05-07T11:50:35;6.00;;;3.85;;
57730;SDS011;43570;47.476;19.040;2023-05-07T11:53:07;5.15;;;3.70;;
57730;SDS011;43570;47.476;19.040;2023-05-07T11:55:32;4.55;;;3.45;;
57730;SDS011;43570;47.476;19.040;2023-05-07T11:57:58;4.97;;;3.42;;
57730;SDS011;43570;47.476;19.040;2023-05-07T12:00:23;6.12;;;3.60;;
57730;SDS011;43570;47.476;19.040;2023-05-07T12:02:49;6.82;;;4.75;;
57730;SDS011;43570;47.476;19.040;2023-05-07T12:05:14;3.78;;;3.05;;
57730;SDS011;43570;47.476;19.040;2023-05-07T12:07:40;3.50;;;3.20;;
57730;SDS011;43570;47.476;19.040;2023-05-07T12:10:06;6.18;;;3.78;;
57730;SDS011;43570;47.476;19.040;2023-05-07T12:12:37;4.55;;;3.10;;
57730;SDS011;43570;47.476;19.040;2023-05-07T12:15:04;4.43;;;3.30;;
57730;SDS011;43570;47.476;19.040;2023-05-07T12:17:30;4.82;;;3.55;;
57730;SDS011;43570;47.476;19.040;2023-05-07T12:19:55;5.70;;;3.65;;
57730;SDS011;43570;47.476;19.040;2023-05-07T12:22:21;3.90;;;3.12;;
57730;SDS011;43570;47.476;19.040;2023-05-07T12:24:48;3.80;;;2.95;;
57730;SDS011;43570;47.476;19.040;2023-05-07T12:27:15;5.90;;;2.92;;
57730;SDS011;43570;47.476;19.040;2023-05-07T12:29:49;4.40;;;3.15;;
57730;SDS011;43570;47.476;19.040;2023-05-07T12:32:15;5.00;;;3.60;;
57730;SDS011;43570;47.476;19.040;2023-05-07T12:34:42;6.53;;;4.10;;
57730;SDS011;43570;47.476;19.040;2023-05-07T12:37:07;4.35;;;3.10;;
57730;SDS011;43570;47.476;19.040;2023-05-07T12:39:33;4.22;;;2.83;;
57730;SDS011;43570;47.476;19.040;2023-05-07T12:41:59;4.47;;;3.22;;
57730;SDS011;43570;47.476;19.040;2023-05-07T12:44:25;4.65;;;3.35;;
57730;SDS011;43570;47.476;19.040;2023-05-07T12:46:54;3.92;;;2.97;;
57730;SDS011;43570;47.476;19.040;2023-05-07T12:49:20;5.12;;;3.42;;
57730;SDS011;43570;47.476;19.040;2023-05-07T12:51:49;3.30;;;2.85;;
57730;SDS011;43570;47.476;19.040;2023-05-07T12:54:34;5.12;;;3.15;;
57730;SDS011;43570;47.476;19.040;2023-05-07T12:57:08;3.60;;;2.58;;
57730;SDS011;43570;47.476;19.040;2023-05-07T12:59:38;5.18;;;3.40;;
57730;SDS011;43570;47.476;19.040;2023-05-07T13:02:05;4.45;;;3.05;;
57730;SDS011;43570;47.476;19.040;2023-05-07T13:04:31;6.00;;;3.65;;
57730;SDS011;43570;47.476;19.040;2023-05-07T13:06:56;5.37;;;3.30;;
57730;SDS011;43570;47.476;19.040;2023-05-07T13:09:23;5.87;;;3.70;;
57730;SDS011;43570;47.476;19.040;2023-05-07T13:11:48;4.72;;;3.00;;
57730;SDS011;43570;47.476;19.040;2023-05-07T13:14:13;5.62;;;3.00;;
57730;SDS011;43570;47.476;19.040;2023-05-07T13:16:40;3.40;;;2.75;;
57730;SDS011;43570;47.476;19.040;2023-05-07T13:19:05;4.80;;;3.17;;
57730;SDS011;43570;47.476;19.040;2023-05-07T13:21:30;5.15;;;3.30;;
57730;SDS011;43570;47.476;19.040;2023-05-07T13:23:59;5.12;;;2.90;;
57730;SDS011;43570;47.476;19.040;2023-05-07T13:26:25;4.22;;;3.20;;
57730;SDS011;43570;47.476;19.040;2023-05-07T13:28:50;4.80;;;3.60;;
57730;SDS011;43570;47.476;19.040;2023-05-07T13:31:16;4.93;;;3.33;;
57730;SDS011;43570;47.476;19.040;2023-05-07T13:33:42;5.68;;;3.30;;
57730;SDS011;43570;47.476;19.040;2023-05-07T13:36:07;4.20;;;3.00;;
57730;SDS011;43570;47.476;19.040;2023-05-07T13:38:33;4.47;;;2.92;;
57730;SDS011;43570;47.476;19.040;2023-05-07T13:40:58;4.22;;;2.75;;
57730;SDS011;43570;47.476;19.040;2023-05-07T13:43:24;4.07;;;2.60;;
57730;SDS011;43570;47.476;19.040;2023-05-07T13:45:49;4.10;;;2.22;;
57730;SDS011;43570;47.476;19.040;2023-05-07T13:48:15;4.40;;;3.12;;
57730;SDS011;43570;47.476;19.040;2023-05-07T13:50:40;4.62;;;2.92;;
57730;SDS011;43570;47.476;19.040;2023-05-07T13:53:07;3.72;;;2.50;;
57730;SDS011;43570;47.476;19.040;2023-05-07T13:55:33;4.43;;;3.00;;
57730;SDS011;43570;47.476;19.040;2023-05-07T13:57:59;5.72;;;3.40;;
57730;SDS011;43570;47.476;19.040;2023-05-07T14:00:26;5.80;;;4.40;;
57730;SDS011;43570;47.476;19.040;2023-05-07T14:02:53;4.07;;;3.42;;
57730;SDS011;43570;47.476;19.040;2023-05-07T14:05:19;4.03;;;3.42;;
57730;SDS011;43570;47.476;19.040;2023-05-07T14:07:44;4.07;;;3.10;;
57730;SDS011;43570;47.476;19.040;2023-05-07T14:10:10;3.70;;;2.85;;
57730;SDS011;43570;47.476;19.040;2023-05-07T14:12:36;5.57;;;3.75;;
57730;SDS011;43570;47.476;19.040;2023-05-07T14:15:02;3.58;;;2.90;;
57730;SDS011;43570;47.476;19.040;2023-05-07T14:17:27;4.22;;;3.00;;
57730;SDS011;43570;47.476;19.040;2023-05-07T14:19:53;4.32;;;3.05;;
57730;SDS011;43570;47.476;19.040;2023-05-07T14:22:20;4.30;;;3.05;;
57730;SDS011;43570;47.476;19.040;2023-05-07T14:24:46;5.55;;;3.05;;
57730;SDS011;43570;47.476;19.040;2023-05-07T14:27:12;4.60;;;3.65;;
57730;SDS011;43570;47.476;19.040;2023-05-07T14:29:37;5.72;;;3.55;;
57730;SDS011;43570;47.476;19.040;2023-05-07T14:32:03;5.93;;;3.30;;
57730;SDS011;43570;47.476;19.040;2023-05-07T14:34:28;5.43;;;3.75;;
57730;SDS011;43570;47.476;19.040;2023-05-07T14:36:54;6.40;;;3.60;;
57730;SDS011;43570;47.476;19.040;2023-05-07T14:39:20;8.65;;;3.70;;
57730;SDS011;43570;47.476;19.040;2023-05-07T14:41:46;5.35;;;3.35;;
57730;SDS011;43570;47.476;19.040;2023-05-07T14:44:11;6.10;;;3.85;;
57730;SDS011;43570;47.476;19.040;2023-05-07T14:46:36;7.43;;;3.80;;
57730;SDS011;43570;47.476;19.040;2023-05-07T14:49:02;5.25;;;3.67;;
57730;SDS011;43570;47.476;19.040;2023-05-07T14:51:28;4.43;;;3.45;;